Forside
METAR-TAF:

METAR-TAF

Lufthavne :

Japanese Ground Self Defense Force

Tokachi-Obihiro, Japan

Breddekreds: 42-54N, længdekreds: 143-10E, højde: 84 m

Aktuelle vejr

Denne rapport blev lavet for 20 minutter siden, kl. 07:15 UTC
Vind 5 kt fra vestnordvest
Temperatur -2°C
Fugtighed 86%
Tryk 1019 hPa
Sigt 10 km eller mere
Nogle få skyer i en højde af 1200 ft
Spredte skyer i en højde af 2500 ft
Brudte skyer i en højde af 5000 ft
let snebyger

METAR: RJCT 280715Z 29005KT 9999 -SHSN FEW012 SCT025 BKN050 M02/M04 Q1019 RMK 1ST012 4CU025 6CU050 A3011

Tid: 16:35 (07:35 UTC)


TAF: fraværende

Vejrobservationer og prognoser fra mere end 4000 lufthavne (METAR og TAF).

De gule og røde prikker repræsenterer de meteorologiske stationer.

Flyt musen over at se navnet på stationen.

Så klik over at se vejr observationer og prognoser.

At skifte det kort: Klik på de grønne knapper med et sort kors for at zoome ind; på den grønne knap med en bindestreg for at zoome ud; eller på de grønne pile for tilstødende kort.


METAR-TAF: